createdAt,value
2019-04-21T00:00:18.623Z,94.60
2019-04-21T00:02:48.603Z,94.70
2019-04-21T00:05:35.165Z,95.10
2019-04-21T00:08:12.840Z,95.40
2019-04-21T00:10:40.076Z,95.70
2019-04-21T00:13:02.690Z,95.80
2019-04-21T00:15:29.820Z,96.00
2019-04-21T00:18:00.314Z,96.20
2019-04-21T00:20:35.242Z,96.30
2019-04-21T00:23:15.525Z,96.50
2019-04-21T00:25:42.713Z,96.90
2019-04-21T00:28:28.981Z,96.70
2019-04-21T00:30:53.158Z,96.80
2019-04-21T00:33:09.034Z,97.10
2019-04-21T00:35:41.437Z,97.10
2019-04-21T00:38:24.965Z,97.20
2019-04-21T00:40:56.493Z,97.30
2019-04-21T00:43:23.381Z,97.40
2019-04-21T00:45:49.858Z,97.50
2019-04-21T00:48:29.841Z,97.70
2019-04-21T00:51:25.078Z,97.90
2019-04-21T00:53:46.805Z,98.60
2019-04-21T00:56:09.011Z,98.50
2019-04-21T00:58:43.812Z,98.90
2019-04-21T01:01:10.414Z,99.30
2019-04-21T01:03:43.461Z,99.90
2019-04-21T01:06:11.439Z,99.90
2019-04-21T01:08:42.656Z,99.90
2019-04-21T01:11:15.312Z,99.90
2019-04-21T01:13:45.498Z,99.90
2019-04-21T01:16:15.541Z,99.90
2019-04-21T01:18:42.738Z,99.90
2019-04-21T01:20:53.855Z,99.90
2019-04-21T01:23:23.414Z,99.90
2019-04-21T01:26:06.911Z,99.90
2019-04-21T01:28:41.376Z,99.90
2019-04-21T01:31:15.019Z,99.90
2019-04-21T01:33:50.759Z,99.90
2019-04-21T01:36:14.552Z,99.90
2019-04-21T01:38:58.323Z,99.90
2019-04-21T01:41:21.072Z,99.90
2019-04-21T01:43:51.560Z,99.90
2019-04-21T01:46:14.127Z,99.90
2019-04-21T01:48:44.084Z,99.90
2019-04-21T01:51:23.536Z,99.90
2019-04-21T01:54:05.145Z,99.90
2019-04-21T01:56:39.551Z,99.90
2019-04-21T01:59:01.527Z,99.90
2019-04-21T02:01:42.450Z,99.90
2019-04-21T02:04:14.106Z,99.90
2019-04-21T02:06:44.525Z,99.90
2019-04-21T02:09:16.341Z,99.90
2019-04-21T02:11:52.080Z,99.90
2019-04-21T02:14:29.874Z,99.90
2019-04-21T02:16:49.557Z,99.90
2019-04-21T02:19:18.307Z,99.90
2019-04-21T02:21:43.299Z,99.90
2019-04-21T02:24:31.195Z,99.90
2019-04-21T02:26:55.904Z,99.90
2019-04-21T02:29:29.448Z,99.90
2019-04-21T02:32:08.965Z,99.90
2019-04-21T02:39:40.590Z,99.90
2019-04-21T02:44:44.727Z,99.90
2019-04-21T02:47:09.541Z,99.90
2019-04-21T02:59:59.998Z,99.90
2019-04-21T03:02:44.525Z,99.90
2019-04-21T03:08:08.477Z,99.90
2019-04-21T03:10:45.596Z,99.90
2019-04-21T03:13:14.036Z,99.90
2019-04-21T03:15:59.877Z,99.90
2019-04-21T03:21:05.207Z,99.90
2019-04-21T03:26:04.481Z,99.90
2019-04-21T03:28:14.248Z,99.90
2019-04-21T03:31:05.992Z,99.90
2019-04-21T03:36:13.324Z,99.90
2019-04-21T03:38:19.122Z,99.90
2019-04-21T03:41:04.242Z,99.90
2019-04-21T03:43:20.145Z,99.90
2019-04-21T03:50:47.277Z,99.90
2019-04-21T03:53:24.829Z,99.90
2019-04-21T03:58:35.136Z,99.90
2019-04-21T04:01:07.806Z,99.90
2019-04-21T04:04:26.368Z,99.90
2019-04-21T04:06:55.601Z,99.90
2019-04-21T04:09:45.053Z,99.90
2019-04-21T04:12:26.845Z,99.90
2019-04-21T04:14:44.145Z,99.90
2019-04-21T04:24:57.910Z,99.90
2019-04-21T04:27:35.279Z,99.90
2019-04-21T04:29:57.274Z,99.90
2019-04-21T04:32:24.896Z,99.90
2019-04-21T04:40:23.311Z,99.90
2019-04-21T04:42:56.893Z,99.90
2019-04-21T04:45:30.731Z,99.90
2019-04-21T04:47:59.149Z,99.90
2019-04-21T04:50:33.946Z,99.90
2019-04-21T04:53:05.246Z,99.90
2019-04-21T04:55:25.847Z,99.90
2019-04-21T05:00:35.045Z,99.90
2019-04-21T05:03:01.836Z,99.90
2019-04-21T05:05:49.103Z,99.90
2019-04-21T05:08:08.346Z,99.90
2019-04-21T05:10:47.674Z,99.90
2019-04-21T05:13:14.608Z,99.90
2019-04-21T05:15:42.210Z,99.90
2019-04-21T05:18:05.443Z,99.90
2019-04-21T05:20:36.533Z,99.90
2019-04-21T05:23:01.031Z,99.90
2019-04-21T05:25:31.109Z,99.90
2019-04-21T05:27:56.942Z,99.90
2019-04-21T05:31:11.502Z,99.90
2019-04-21T05:33:44.810Z,99.90
2019-04-21T05:36:20.505Z,99.90
2019-04-21T05:39:07.194Z,99.90
2019-04-21T05:41:26.538Z,99.90
2019-04-21T05:44:11.180Z,99.90
2019-04-21T05:46:39.799Z,99.90
2019-04-21T05:49:20.510Z,99.90
2019-04-21T05:52:04.931Z,99.90
2019-04-21T05:54:48.296Z,99.90
2019-04-21T05:57:05.914Z,99.90
2019-04-21T05:59:37.888Z,99.90
2019-04-21T06:02:18.590Z,99.90
2019-04-21T06:05:10.419Z,99.90
2019-04-21T06:07:21.591Z,99.90
2019-04-21T06:09:52.449Z,99.90
2019-04-21T06:12:14.630Z,99.90
2019-04-21T06:14:52.228Z,99.90
2019-04-21T06:19:49.486Z,99.90
2019-04-21T06:22:14.898Z,99.90
2019-04-21T06:25:11.501Z,99.90
2019-04-21T06:27:22.950Z,99.90
2019-04-21T06:29:50.305Z,99.90
2019-04-21T06:32:37.401Z,99.90
2019-04-21T06:42:34.224Z,99.90
2019-04-21T06:45:20.498Z,99.90
2019-04-21T06:47:42.389Z,99.90
2019-04-21T06:50:01.636Z,99.90
2019-04-21T06:52:50.166Z,99.90
2019-04-21T06:55:20.108Z,99.90
2019-04-21T06:57:40.276Z,99.90
2019-04-21T07:00:06.447Z,99.90
2019-04-21T07:05:07.572Z,99.90
2019-04-21T07:07:43.412Z,99.90
2019-04-21T07:10:10.269Z,99.90
2019-04-21T07:12:39.377Z,99.90
2019-04-21T07:15:11.349Z,99.90
2019-04-21T07:17:38.973Z,99.90
2019-04-21T07:20:28.290Z,99.90
2019-04-21T07:22:47.861Z,99.90
2019-04-21T07:25:18.266Z,99.90
2019-04-21T07:27:46.596Z,99.90
2019-04-21T07:30:21.224Z,99.90
2019-04-21T07:32:58.099Z,99.90
2019-04-21T07:35:23.606Z,99.40
2019-04-21T07:37:54.075Z,98.90
2019-04-21T07:40:17.703Z,98.30
2019-04-21T07:42:47.829Z,97.60
2019-04-21T07:45:16.576Z,96.30
2019-04-21T07:47:55.161Z,95.70
2019-04-21T07:50:47.484Z,92.80
2019-04-21T07:53:27.665Z,91.40
2019-04-21T07:55:37.355Z,90.20
2019-04-21T07:58:29.897Z,86.70
2019-04-21T08:01:09.541Z,84.70
2019-04-21T08:03:29.759Z,82.80
2019-04-21T08:06:02.223Z,81.60
2019-04-21T08:08:29.600Z,77.50
2019-04-21T08:10:57.357Z,76.90
2019-04-21T08:13:41.559Z,75.50
2019-04-21T08:16:04.687Z,72.50
2019-04-21T08:18:37.412Z,73.40
2019-04-21T08:21:00.814Z,73.60
2019-04-21T08:23:31.751Z,70.10
2019-04-21T08:26:07.969Z,67.30
2019-04-21T08:28:40.658Z,66.20
2019-04-21T08:31:09.841Z,64.50
2019-04-21T08:33:46.569Z,62.30
2019-04-21T08:36:19.368Z,61.30
2019-04-21T08:38:42.618Z,61.50
2019-04-21T08:46:13.079Z,58.80
2019-04-21T08:48:42.020Z,59.00
2019-04-21T08:53:47.517Z,57.40
2019-04-21T08:56:27.775Z,57.50
2019-04-21T08:59:19.215Z,57.30
2019-04-21T09:02:06.279Z,55.80
2019-04-21T09:04:33.511Z,56.50
2019-04-21T09:07:28.769Z,56.40
2019-04-21T09:09:41.526Z,56.40
2019-04-21T09:12:07.232Z,55.80
2019-04-21T09:14:37.076Z,54.40
2019-04-21T09:17:08.027Z,53.10
2019-04-21T09:19:51.420Z,53.60
2019-04-21T09:22:12.853Z,53.10
2019-04-21T09:24:41.037Z,51.40
2019-04-21T09:27:09.694Z,50.30
2019-04-21T09:29:32.399Z,51.30
2019-04-21T09:31:59.209Z,52.10
2019-04-21T09:34:33.240Z,51.90
2019-04-21T09:37:12.502Z,48.20
2019-04-21T09:39:31.464Z,47.30
2019-04-21T09:42:02.597Z,47.30
2019-04-21T09:44:36.794Z,48.30
2019-04-21T09:47:03.754Z,47.30
2019-04-21T09:49:33.822Z,45.50
2019-04-21T09:52:08.918Z,44.20
2019-04-21T09:54:45.218Z,45.20
2019-04-21T09:57:10.579Z,45.30
2019-04-21T09:59:40.108Z,44.00
2019-04-21T10:02:14.204Z,43.40
2019-04-21T10:04:38.058Z,42.50
2019-04-21T10:07:07.259Z,40.30
2019-04-21T10:09:37.597Z,41.80
2019-04-21T10:12:07.514Z,42.60
2019-04-21T10:14:36.770Z,39.50
2019-04-21T10:17:40.202Z,38.10
2019-04-21T10:20:11.635Z,39.10
2019-04-21T10:22:41.366Z,37.40
2019-04-21T10:25:12.577Z,37.20
2019-04-21T10:27:43.082Z,35.10
2019-04-21T10:30:14.193Z,32.70
2019-04-21T10:32:43.467Z,33.70
2019-04-21T10:35:15.256Z,34.20
2019-04-21T10:37:58.179Z,32.90
2019-04-21T10:40:17.995Z,32.20
2019-04-21T10:42:48.127Z,32.70
2019-04-21T10:45:18.997Z,33.20
2019-04-21T10:47:49.327Z,32.60
2019-04-21T10:50:18.775Z,32.80
2019-04-21T10:53:07.033Z,32.00
2019-04-21T10:55:54.451Z,32.30
2019-04-21T10:58:16.665Z,32.20
2019-04-21T11:00:46.391Z,32.50
2019-04-21T11:03:35.342Z,32.50
2019-04-21T11:06:06.453Z,32.70
2019-04-21T11:08:41.492Z,33.10
2019-04-21T11:11:08.004Z,32.80
2019-04-21T11:13:38.731Z,32.70
2019-04-21T11:16:08.893Z,32.20
2019-04-21T11:18:38.227Z,32.00
2019-04-21T11:21:07.398Z,31.50
2019-04-21T11:23:37.495Z,31.10
2019-04-21T11:26:07.090Z,30.70
2019-04-21T11:28:36.765Z,30.60
2019-04-21T11:31:07.043Z,30.70
2019-04-21T11:33:37.631Z,30.80
2019-04-21T11:36:07.066Z,30.50
2019-04-21T11:39:05.063Z,30.60
2019-04-21T11:41:16.071Z,31.10
2019-04-21T11:43:45.476Z,31.40
2019-04-21T11:46:16.141Z,31.80
2019-04-21T11:48:46.150Z,31.80
2019-04-21T11:51:15.490Z,32.60
2019-04-21T11:53:44.684Z,33.00
2019-04-21T11:56:14.697Z,33.10
2019-04-21T11:58:44.075Z,32.30
2019-04-21T12:01:13.892Z,32.60
2019-04-21T12:03:43.206Z,32.90
2019-04-21T12:06:13.400Z,32.70
2019-04-21T12:08:46.372Z,32.40
2019-04-21T12:11:13.734Z,32.40
2019-04-21T12:13:43.022Z,32.60
2019-04-21T12:16:12.976Z,32.00
2019-04-21T12:18:42.989Z,31.70
2019-04-21T12:21:13.499Z,32.20
2019-04-21T12:23:42.934Z,31.60
2019-04-21T12:26:12.191Z,31.00
2019-04-21T12:28:41.834Z,32.40
2019-04-21T12:31:33.763Z,30.90
2019-04-21T12:34:07.776Z,30.30
2019-04-21T12:36:38.089Z,30.70
2019-04-21T12:39:10.674Z,29.80
2019-04-21T12:41:40.532Z,28.60
2019-04-21T12:44:10.830Z,28.70
2019-04-21T12:46:40.235Z,28.70
2019-04-21T12:49:09.834Z,27.90
2019-04-21T12:51:39.783Z,27.10
2019-04-21T12:54:09.878Z,27.70
2019-04-21T12:56:39.140Z,27.20
2019-04-21T12:59:08.443Z,26.70
2019-04-21T13:01:38.920Z,27.20
2019-04-21T13:04:08.242Z,26.80
2019-04-21T13:06:37.544Z,25.90
2019-04-21T13:09:11.136Z,26.50
2019-04-21T13:11:39.252Z,27.30
2019-04-21T13:14:08.719Z,26.80
2019-04-21T13:16:39.144Z,25.60
2019-04-21T13:19:09.334Z,25.40
2019-04-21T13:21:38.768Z,25.50
2019-04-21T13:24:08.054Z,25.80
2019-04-21T13:26:45.355Z,25.20
2019-04-21T13:29:08.195Z,24.90
2019-04-21T13:31:38.423Z,24.70
2019-04-21T13:34:08.271Z,24.50
2019-04-21T13:36:37.603Z,25.10
2019-04-21T13:42:02.750Z,25.60
2019-04-21T13:44:23.921Z,24.70
2019-04-21T13:46:54.514Z,25.00
2019-04-21T13:49:25.267Z,24.70
2019-04-21T13:51:54.584Z,24.40
2019-04-21T13:54:25.396Z,25.00
2019-04-21T13:56:56.412Z,25.00
2019-04-21T13:59:26.434Z,25.60
2019-04-21T14:01:55.661Z,26.20
2019-04-21T14:04:25.283Z,26.10
2019-04-21T14:06:54.676Z,25.20
2019-04-21T14:09:36.054Z,25.40
2019-04-21T14:11:55.769Z,25.50
2019-04-21T14:14:26.168Z,25.00
2019-04-21T14:16:56.152Z,25.20
2019-04-21T14:19:25.603Z,25.30
2019-04-21T14:21:55.282Z,26.30
2019-04-21T14:24:24.682Z,26.10
2019-04-21T14:26:54.354Z,25.50
2019-04-21T14:29:23.907Z,26.10
2019-04-21T14:31:53.258Z,25.40
2019-04-21T14:34:23.806Z,25.80
2019-04-21T14:36:53.200Z,23.80
2019-04-21T14:39:22.874Z,24.40
2019-04-21T14:41:52.215Z,24.70
2019-04-21T14:44:22.678Z,24.70
2019-04-21T14:47:00.823Z,24.30
2019-04-21T14:50:07.619Z,24.20
2019-04-21T14:52:39.090Z,24.30
2019-04-21T14:55:14.389Z,23.90
2019-04-21T14:57:43.735Z,24.00
2019-04-21T15:00:15.593Z,23.90
2019-04-21T15:02:45.541Z,23.90
2019-04-21T15:05:15.673Z,23.60
2019-04-21T15:07:45.474Z,24.10
2019-04-21T15:10:19.037Z,24.00
2019-04-21T15:12:45.706Z,23.70
2019-04-21T15:15:16.021Z,24.30
2019-04-21T15:17:46.306Z,24.10
2019-04-21T15:20:17.377Z,24.20
2019-04-21T15:22:46.519Z,24.10
2019-04-21T15:25:16.224Z,24.30
2019-04-21T15:27:46.625Z,25.40
2019-04-21T15:30:16.454Z,25.40
2019-04-21T15:32:46.508Z,25.30
2019-04-21T15:35:17.297Z,25.50
2019-04-21T15:37:46.639Z,26.00
2019-04-21T15:40:27.253Z,25.90
2019-04-21T15:42:46.781Z,26.40
2019-04-21T15:45:16.765Z,27.00
2019-04-21T15:47:47.471Z,25.90
2019-04-21T15:50:19.415Z,26.50
2019-04-21T15:52:49.699Z,27.00
2019-04-21T15:55:41.264Z,27.70
2019-04-21T15:58:16.971Z,27.50
2019-04-21T16:00:52.350Z,28.00
2019-04-21T16:03:22.675Z,28.70
2019-04-21T16:05:51.941Z,28.80
2019-04-21T16:08:22.032Z,29.30
2019-04-21T16:10:56.514Z,29.10
2019-04-21T16:13:23.542Z,29.10
2019-04-21T16:15:52.867Z,29.00
2019-04-21T16:18:22.504Z,29.20
2019-04-21T16:20:51.783Z,29.30
2019-04-21T16:23:22.418Z,29.40
2019-04-21T16:25:52.750Z,29.60
2019-04-21T16:28:23.237Z,29.70
2019-04-21T16:30:54.060Z,29.40
2019-04-21T16:33:25.044Z,29.20
2019-04-21T16:35:55.849Z,29.30
2019-04-21T16:38:25.822Z,29.70
2019-04-21T16:40:59.784Z,29.60
2019-04-21T16:43:27.048Z,30.00
2019-04-21T16:45:57.126Z,30.90
2019-04-21T16:48:27.355Z,31.10
2019-04-21T16:50:57.514Z,31.50
2019-04-21T16:53:30.382Z,32.10
2019-04-21T16:56:04.857Z,32.70
2019-04-21T16:58:44.976Z,33.60
2019-04-21T17:01:20.216Z,34.30
2019-04-21T17:03:50.505Z,34.60
2019-04-21T17:06:19.778Z,35.20
2019-04-21T17:08:50.466Z,34.90
2019-04-21T17:11:26.128Z,34.50
2019-04-21T17:13:51.996Z,34.70
2019-04-21T17:16:50.836Z,34.90
2019-04-21T17:19:01.881Z,34.90
2019-04-21T17:21:23.840Z,35.00
2019-04-21T17:23:54.507Z,35.20
2019-04-21T17:26:23.779Z,35.60
2019-04-21T17:28:54.322Z,35.60
2019-04-21T17:31:24.604Z,35.80
2019-04-21T17:34:02.059Z,35.90
2019-04-21T17:36:25.228Z,36.80
2019-04-21T17:38:55.719Z,36.40
2019-04-21T17:41:33.381Z,36.40
2019-04-21T17:43:56.272Z,36.70
2019-04-21T17:46:36.901Z,36.80
2019-04-21T17:48:56.858Z,37.20
2019-04-21T17:51:33.613Z,37.40
2019-04-21T17:54:17.574Z,37.80
2019-04-21T17:57:07.861Z,38.00
2019-04-21T17:59:46.140Z,38.10
2019-04-21T18:02:05.130Z,38.30
2019-04-21T18:04:37.447Z,38.80
2019-04-21T18:07:33.066Z,38.90
2019-04-21T18:10:04.936Z,39.20
2019-04-21T18:12:31.837Z,39.50
2019-04-21T18:14:56.737Z,39.40
2019-04-21T18:17:18.473Z,39.20
2019-04-21T18:19:51.293Z,39.40
2019-04-21T18:22:38.627Z,39.70
2019-04-21T18:25:10.482Z,39.70
2019-04-21T18:27:38.634Z,39.70
2019-04-21T18:30:42.489Z,40.40
2019-04-21T18:33:21.363Z,39.80
2019-04-21T18:36:08.600Z,39.90
2019-04-21T18:39:12.558Z,40.20
2019-04-21T18:41:26.992Z,40.60
2019-04-21T18:44:28.153Z,42.20
2019-04-21T18:46:58.673Z,45.10
2019-04-21T18:49:24.715Z,47.50
2019-04-21T18:52:04.940Z,49.30
2019-04-21T18:54:46.130Z,50.90
2019-04-21T18:57:07.655Z,51.60
2019-04-21T18:59:37.569Z,52.80
2019-04-21T19:02:06.400Z,53.40
2019-04-21T19:04:35.237Z,54.50
2019-04-21T19:07:18.257Z,55.40
2019-04-21T19:10:10.288Z,56.10
2019-04-21T19:12:34.013Z,56.50
2019-04-21T19:14:50.570Z,57.00
2019-04-21T19:18:05.491Z,57.20
2019-04-21T19:20:00.834Z,57.40
2019-04-21T19:22:29.338Z,57.50
2019-04-21T19:24:59.771Z,57.80
2019-04-21T19:27:26.299Z,58.20
2019-04-21T19:30:08.576Z,58.60
2019-04-21T19:32:30.282Z,58.80
2019-04-21T19:34:45.487Z,59.00
2019-04-21T19:37:18.891Z,59.20
2019-04-21T19:39:58.927Z,59.30
2019-04-21T19:42:25.631Z,60.20
2019-04-21T19:45:03.369Z,59.80
2019-04-21T19:47:41.083Z,60.30
2019-04-21T19:50:05.945Z,61.00
2019-04-21T19:52:31.927Z,61.40
2019-04-21T19:54:50.725Z,62.10
2019-04-21T19:57:20.980Z,62.60
2019-04-21T19:59:55.256Z,63.10
2019-04-21T20:02:22.447Z,63.70
2019-04-21T20:05:00.835Z,64.10
2019-04-21T20:07:38.132Z,64.60
2019-04-21T20:10:14.351Z,65.20
2019-04-21T20:13:02.923Z,65.70
2019-04-21T20:15:19.017Z,66.20
2019-04-21T20:17:42.358Z,66.70
2019-04-21T20:19:58.220Z,67.30
2019-04-21T20:22:32.927Z,67.50
2019-04-21T20:25:05.944Z,67.60
2019-04-21T20:27:38.589Z,68.00
2019-04-21T20:30:17.451Z,68.70
2019-04-21T20:32:52.165Z,69.10
2019-04-21T20:35:26.855Z,68.90
2019-04-21T20:37:47.915Z,68.50
2019-04-21T20:40:15.998Z,68.50
2019-04-21T20:42:46.555Z,68.30
2019-04-21T20:45:41.772Z,68.00
2019-04-21T20:47:42.885Z,66.90
2019-04-21T20:50:19.634Z,67.70
2019-04-21T20:52:58.519Z,67.90
2019-04-21T20:55:20.222Z,68.10
2019-04-21T20:57:53.769Z,68.20
2019-04-21T21:00:32.749Z,68.60
2019-04-21T21:03:02.597Z,68.90
2019-04-21T21:05:27.354Z,69.30
2019-04-21T21:08:03.821Z,69.60
2019-04-21T21:10:33.480Z,70.00
2019-04-21T21:13:14.568Z,70.30
2019-04-21T21:15:36.587Z,70.50
2019-04-21T21:18:22.805Z,70.60
2019-04-21T21:20:35.667Z,70.90
2019-04-21T21:23:02.904Z,71.30
2019-04-21T21:25:44.746Z,71.60
2019-04-21T21:28:01.256Z,71.80
2019-04-21T21:30:35.051Z,71.90
2019-04-21T21:33:15.255Z,72.00
2019-04-21T21:35:39.610Z,72.10
2019-04-21T21:38:14.456Z,72.00
2019-04-21T21:40:42.784Z,72.40
2019-04-21T21:43:01.658Z,72.70
2019-04-21T21:45:37.710Z,72.70
2019-04-21T21:48:18.776Z,72.80
2019-04-21T21:50:44.419Z,73.20
2019-04-21T21:53:08.628Z,73.70
2019-04-21T21:55:35.418Z,74.10
2019-04-21T21:58:04.365Z,74.20
2019-04-21T22:00:38.007Z,74.40
2019-04-21T22:03:16.277Z,74.40
2019-04-21T22:05:45.518Z,75.00
2019-04-21T22:08:10.156Z,74.90
2019-04-21T22:10:41.082Z,75.10
2019-04-21T22:13:15.352Z,75.60
2019-04-21T22:15:41.612Z,76.40
2019-04-21T22:18:28.803Z,77.00
2019-04-21T22:21:00.526Z,77.60
2019-04-21T22:23:23.929Z,78.20
2019-04-21T22:25:45.364Z,78.60
2019-04-21T22:28:15.650Z,79.10
2019-04-21T22:30:49.695Z,80.00
2019-04-21T22:33:19.535Z,80.90
2019-04-21T22:35:54.249Z,81.50
2019-04-21T22:38:34.839Z,82.40
2019-04-21T22:41:02.991Z,83.20
2019-04-21T22:43:28.364Z,84.00
2019-04-21T22:45:51.394Z,83.20
2019-04-21T22:48:23.658Z,83.30
2019-04-21T22:50:52.675Z,83.60
2019-04-21T22:53:23.077Z,84.00
2019-04-21T22:56:00.070Z,84.20
2019-04-21T22:58:29.367Z,84.50
2019-04-21T23:00:57.060Z,85.30
2019-04-21T23:03:28.211Z,85.90
2019-04-21T23:05:55.941Z,86.10
2019-04-21T23:08:30.417Z,86.40
2019-04-21T23:11:01.465Z,87.10
2019-04-21T23:13:28.603Z,87.70
2019-04-21T23:16:00.897Z,88.30
2019-04-21T23:18:42.294Z,88.80
2019-04-21T23:21:15.015Z,89.00
2019-04-21T23:23:50.172Z,89.20
2019-04-21T23:26:21.958Z,89.40
2019-04-21T23:28:50.670Z,89.70
2019-04-21T23:31:25.819Z,90.00
2019-04-21T23:33:34.559Z,90.10
2019-04-21T23:36:11.958Z,90.20
2019-04-21T23:38:40.824Z,90.30
2019-04-21T23:41:09.209Z,90.40
2019-04-21T23:43:38.196Z,90.50
2019-04-21T23:46:14.832Z,90.70
2019-04-21T23:48:55.932Z,91.00
2019-04-21T23:51:21.917Z,91.00
2019-04-21T23:53:39.818Z,91.10
2019-04-21T23:56:14.736Z,91.40
2019-04-21T23:58:40.366Z,91.60
